BIKFBGBW

Guest
Details From BIKF - Keflavik
To BGBW - Narsarsuaq
Flight Number -
Tags decoded
Created
Modified
Stats Distance 729 nm / 1,350 km
Max Altitude 0 ft / 0 m
Waypoints 4
Social Downloads 3
Likes 0
Share VATSIM

Download

Looking for another format? Having issues loading an existing format? Contact us
Advertisement - Login to hide

Notes

Requested: BIKF GIMLI SOSIT DA BGBW

Route

BIKF GIMLI DA BGBW

ID Type Via Altitude Latitude Longitude Leg Dist Tot Dist Heading (true) Name
O BIKF APT - 0 ft / 0 m 63.98161˚ -22.61456˚ - 0 nm - Keflavik
GIMLI FIX - 0 ft / 0 m 64.64000˚ -26.97833˚ 120 nm 120 nm 291° / 287° -
DA NDB - 0 ft / 0 m 65.57056˚ -37.20694˚ 264 nm 384 nm 287° / 278° KULUSUK NDB
O BGBW APT - 0 ft / 0 m 61.16052˚ -45.42598˚ 344 nm 729 nm 224° / 216° Narsarsuaq

Altitude Profile

Advertisement - Login to hide

Weather


0- 5 10 15 20 25 30 35+ Temperature / ° C

Clouds and Precipitation
Forecast for 2017-12-18 00:00 UTC. Updated 26 minutes ago

Ground ~20,000 ft ~40,000 ft Winds

BIKF

Details ICAO BIKF (KEF)
Name Keflavik
Region Iceland
Timezone Atlantic/Reykjavik (UTC+0.0)
Stats Elevation 170 ft / 52 m (AMSL)
Location 63.981612° -22.614563°
Runways 2
Magnetic Variation 14.065° W

METAR

BIKF 172330Z 12025G37KT 4000 -DZRA BKN007 OVC034 02/01 Q0993

Decode

TAF

TAF BIKF 171944Z 1721/1821 16020G30KT 4000 RADZ BKN010 OVC015 TX07/1803Z TN02/1721Z PROB40 1721/1803 16030G40KT 1200 DZ BR OVC006 BECMG 1803/1806 19015KT 9999 -RA SCT015 BKN030 TEMPO 1812/1821 5000 RADZ BR OVC012

Decode

Departure Runways

ID Width Length Bearing (true) Bearing (mag) Surface Threshold Offset Overrun Length
02 197 ft / 60 m 9,997 ft / 3,047 m 0.02° 14.08° Asphalt 0 ft / 0 m 492 ft / 150 m
11 197 ft / 60 m 10,022 ft / 3,055 m 89.97° 104.03° Asphalt 0 ft / 0 m 246 ft / 75 m
20 197 ft / 60 m 9,997 ft / 3,047 m 180.02° 194.08° Asphalt 0 ft / 0 m 98 ft / 30 m
29 197 ft / 60 m 10,022 ft / 3,055 m 270.02° 284.08° Asphalt 0 ft / 0 m 197 ft / 60 m

BGBW

Details ICAO BGBW (UAK)
Name Narsarsuaq
Region Greenland
Timezone America/Godthab (UTC-3.0)
Stats Elevation 112 ft / 34 m (AMSL)
Location 61.160516° -45.425976°
Runways 1
Magnetic Variation 22.903° W

METAR

BGBW 172250Z AUTO 05018KT 9999NDV BKN055/// OVC070/// 03/M12 Q0967

Decode

TAF

Not found

Destination Runways

ID Width Length Bearing (true) Bearing (mag) Surface Threshold Offset Overrun Length
07 148 ft / 45 m 5,921 ft / 1,805 m 40.57° 63.47° Concrete 0 ft / 0 m 0 ft / 0 m
25 148 ft / 45 m 5,921 ft / 1,805 m 220.58° 243.48° Concrete 0 ft / 0 m 279 ft / 85 m

Popular Alternatives